Estación Meteorológica Peña el Pijo (Robertgarden) [ 11/30/23 13:39:12 CET ]

Fecha Hora Presion(HPa) Temp (°C) Humedad % Rocio (°C) Viento ( m/s) Direccion Lluvia 1Hora(mm) Lluvia 24H(mm) LLuvia Total(mm)
2011-Nov-04 01:01:12 995.400 12.1 65 5.7 1.5 SSW   3.62 150.22
2011-Nov-04 02:04:14 995.200 11.0 67 5.1       3.62 150.22
2011-Nov-04 03:01:12 994.900 9.6 76 5.5       3.62 150.22
2011-Nov-04 04:01:14 995.800 8.9 83 6.1     0.51 4.14 150.73
2011-Nov-04 05:01:12 994.700 7.6 84 5.1       4.14 150.73
2011-Nov-04 06:01:11 993.600 6.9 87 4.9       4.14 150.73
2011-Nov-04 07:01:13 993.400 6.6 89 4.9       4.14 150.73
2011-Nov-04 08:01:12 992.800 6.5 90 5.0     0.51 4.66 151.25
2011-Nov-04 09:01:14 992.700 6.8 91 5.5       4.66 151.25
2011-Nov-04 10:01:14 992.200 8.3 90 6.8       4.66 151.25
2011-Nov-04 11:01:17 993.000 8.9 90 7.4       1.55 151.25
2011-Nov-04 12:01:16 991.600 9.2 89 7.5       1.55 151.25
2011-Nov-04 13:01:16 990.800 9.8 87 7.7       1.03 151.25
2011-Nov-04 14:01:13 990.000 11.6 76 7.5 1.2 SW   1.03 151.25
2011-Nov-04 15:01:16 989.900 11.3 75 7.0       1.03 151.25
2011-Nov-04 16:01:11 989.900 10.4 72 5.6       1.03 151.25
2011-Nov-04 17:01:18 990.000 9.9 68 4.3       1.03 151.25
2011-Nov-04 18:01:15 990.500 6.4 77 2.6       1.03 151.25
2011-Nov-04 19:01:14 991.400 5.4 81 2.4       1.03 151.25
2011-Nov-04 20:01:14 992.000 6.1 81 3.1       1.03 151.25
2011-Nov-04 21:01:19 992.300 5.4 84 2.9       1.03 151.25
2011-Nov-04 22:01:16 992.600 5.6 84 3.1       1.03 151.25
2011-Nov-04 23:01:17 993.100 5.5 85 3.1       1.03 151.25

Temperatura Máxima:12°    Temperatura Mínima:
Presión Máxima:995.800 Hpa    Presión Mínima:989.900 Hpa


Volver